createdAt,value
2017-08-22T00:01:52.908Z,12.50
2017-08-22T00:04:20.498Z,12.40
2017-08-22T00:06:48.090Z,12.40
2017-08-22T00:09:15.699Z,12.30
2017-08-22T00:11:43.272Z,12.40
2017-08-22T00:14:10.868Z,12.50
2017-08-22T00:16:38.438Z,12.60
2017-08-22T00:19:06.062Z,12.60
2017-08-22T00:21:33.663Z,12.50
2017-08-22T00:24:01.241Z,12.40
2017-08-22T00:26:28.886Z,12.50
2017-08-22T00:28:56.533Z,12.50
2017-08-22T00:31:24.131Z,12.50
2017-08-22T00:33:51.726Z,12.50
2017-08-22T00:36:19.324Z,12.50
2017-08-22T00:38:46.905Z,12.50
2017-08-22T00:41:14.693Z,12.50
2017-08-22T00:43:42.281Z,12.40
2017-08-22T00:46:09.872Z,12.40
2017-08-22T00:48:37.460Z,12.30
2017-08-22T00:51:05.139Z,12.30
2017-08-22T00:53:32.702Z,12.20
2017-08-22T00:56:00.275Z,12.20
2017-08-22T00:58:27.979Z,12.20
2017-08-22T01:00:55.584Z,12.20
2017-08-22T01:03:23.163Z,12.00
2017-08-22T01:05:50.774Z,12.00
2017-08-22T01:08:18.410Z,12.10
2017-08-22T01:10:46.013Z,12.00
2017-08-22T01:13:13.628Z,11.90
2017-08-22T01:15:41.202Z,11.90
2017-08-22T01:18:08.789Z,11.80
2017-08-22T01:20:36.373Z,11.70
2017-08-22T01:23:03.972Z,11.60
2017-08-22T01:25:31.672Z,11.60
2017-08-22T01:27:59.249Z,11.60
2017-08-22T01:30:26.810Z,11.60
2017-08-22T01:32:54.414Z,11.70
2017-08-22T01:35:21.991Z,11.90
2017-08-22T01:37:49.597Z,11.90
2017-08-22T01:40:17.187Z,12.00
2017-08-22T01:42:44.778Z,11.90
2017-08-22T01:45:12.392Z,11.80
2017-08-22T01:47:40.160Z,11.80
2017-08-22T01:50:07.761Z,11.70
2017-08-22T01:52:35.364Z,11.70
2017-08-22T01:55:02.947Z,11.60
2017-08-22T01:57:30.520Z,11.70
2017-08-22T01:59:58.108Z,11.70
2017-08-22T02:02:25.683Z,11.60
2017-08-22T02:04:53.314Z,11.50
2017-08-22T02:07:20.901Z,11.50
2017-08-22T02:09:48.476Z,11.50
2017-08-22T02:12:16.218Z,11.40
2017-08-22T02:14:43.943Z,11.40
2017-08-22T02:17:11.544Z,11.30
2017-08-22T02:19:39.113Z,11.20
2017-08-22T02:22:06.704Z,11.20
2017-08-22T02:24:34.287Z,11.10
2017-08-22T02:27:01.858Z,11.10
2017-08-22T02:29:29.590Z,11.00
2017-08-22T02:31:57.164Z,11.00
2017-08-22T02:34:24.720Z,10.80
2017-08-22T02:36:52.445Z,10.80
2017-08-22T02:39:20.055Z,10.80
2017-08-22T02:41:47.643Z,10.80
2017-08-22T02:44:15.203Z,10.80
2017-08-22T02:46:42.873Z,10.80
2017-08-22T02:49:10.454Z,10.70
2017-08-22T02:51:38.022Z,10.80
2017-08-22T02:54:05.616Z,10.90
2017-08-22T02:56:33.192Z,10.90
2017-08-22T02:59:00.785Z,10.90
2017-08-22T03:01:28.410Z,10.80
2017-08-22T03:03:55.966Z,10.80
2017-08-22T03:06:23.536Z,10.90
2017-08-22T03:08:51.139Z,10.80
2017-08-22T03:11:18.811Z,10.80
2017-08-22T03:13:46.403Z,10.90
2017-08-22T03:16:13.990Z,10.90
2017-08-22T03:18:41.576Z,10.90
2017-08-22T03:21:09.248Z,11.10
2017-08-22T03:23:36.842Z,11.30
2017-08-22T03:26:04.407Z,11.20
2017-08-22T03:28:31.994Z,11.20
2017-08-22T03:30:59.587Z,11.20
2017-08-22T03:33:27.143Z,11.10
2017-08-22T03:35:54.721Z,11.20
2017-08-22T03:38:22.290Z,11.20
2017-08-22T03:40:49.875Z,11.10
2017-08-22T03:43:17.466Z,11.00
2017-08-22T03:45:45.054Z,10.90
2017-08-22T03:48:12.642Z,10.90
2017-08-22T03:50:40.271Z,10.90
2017-08-22T03:53:07.871Z,10.90
2017-08-22T03:55:35.444Z,11.10
2017-08-22T03:58:03.052Z,11.10
2017-08-22T04:00:30.674Z,11.20
2017-08-22T04:02:58.305Z,11.30
2017-08-22T04:05:25.978Z,11.40
2017-08-22T04:07:53.547Z,11.50
2017-08-22T04:10:21.501Z,11.50
2017-08-22T04:12:49.053Z,11.60
2017-08-22T04:15:16.654Z,11.80
2017-08-22T04:17:44.216Z,11.70
2017-08-22T04:20:11.813Z,11.80
2017-08-22T04:22:39.377Z,11.90
2017-08-22T04:25:06.992Z,12.00
2017-08-22T04:27:34.586Z,12.10
2017-08-22T04:30:02.125Z,12.00
2017-08-22T04:32:29.712Z,12.10
2017-08-22T04:34:57.324Z,12.10
2017-08-22T04:37:24.934Z,12.10
2017-08-22T04:39:52.537Z,12.20
2017-08-22T04:42:20.125Z,12.30
2017-08-22T04:44:47.726Z,12.20
2017-08-22T04:47:15.300Z,12.20
2017-08-22T04:49:42.886Z,12.30
2017-08-22T04:52:10.475Z,12.30
2017-08-22T04:54:38.094Z,12.20
2017-08-22T04:57:05.683Z,12.20
2017-08-22T04:59:33.258Z,12.20
2017-08-22T05:02:01.609Z,12.20
2017-08-22T05:04:29.209Z,12.20
2017-08-22T05:06:56.810Z,12.20
2017-08-22T05:09:24.378Z,12.20
2017-08-22T05:11:52.026Z,12.30
2017-08-22T05:14:19.624Z,12.40
2017-08-22T05:16:47.213Z,12.50
2017-08-22T05:19:14.830Z,12.50
2017-08-22T05:21:42.410Z,12.60
2017-08-22T05:24:09.972Z,12.80
2017-08-22T05:26:37.555Z,12.90
2017-08-22T05:29:05.120Z,13.10
2017-08-22T05:31:32.704Z,13.20
2017-08-22T05:34:00.319Z,13.30
2017-08-22T05:36:27.898Z,13.50
2017-08-22T05:38:55.491Z,13.60
2017-08-22T05:41:23.049Z,13.60
2017-08-22T05:43:50.706Z,13.70
2017-08-22T05:46:18.271Z,13.80
2017-08-22T05:48:45.844Z,13.80
2017-08-22T05:51:13.455Z,13.80
2017-08-22T05:53:41.058Z,13.80
2017-08-22T05:56:08.659Z,13.80
2017-08-22T05:58:36.255Z,13.80
2017-08-22T06:01:03.849Z,13.70
2017-08-22T06:03:31.422Z,13.70
2017-08-22T06:05:58.993Z,13.60
2017-08-22T06:08:26.594Z,13.60
2017-08-22T06:10:54.166Z,13.60
2017-08-22T06:13:21.734Z,13.70
2017-08-22T06:15:49.322Z,13.80
2017-08-22T06:18:16.947Z,14.10
2017-08-22T06:20:44.559Z,14.30
2017-08-22T06:23:12.126Z,14.60
2017-08-22T06:25:39.718Z,14.60
2017-08-22T06:28:07.311Z,15.20
2017-08-22T06:30:34.928Z,16.20
2017-08-22T06:33:02.620Z,17.40
2017-08-22T06:35:30.182Z,18.30
2017-08-22T06:37:57.777Z,18.90
2017-08-22T06:40:25.446Z,19.30
2017-08-22T06:42:53.035Z,19.50
2017-08-22T06:45:20.632Z,19.80
2017-08-22T06:47:48.206Z,20.00
2017-08-22T06:50:15.770Z,20.40
2017-08-22T06:52:43.346Z,20.60
2017-08-22T06:55:10.918Z,21.10
2017-08-22T06:57:38.498Z,21.30
2017-08-22T07:00:06.099Z,21.60
2017-08-22T07:02:33.696Z,21.20
2017-08-22T07:05:01.267Z,21.00
2017-08-22T07:07:28.883Z,21.20
2017-08-22T07:09:56.482Z,21.60
2017-08-22T07:12:24.094Z,21.70
2017-08-22T07:14:51.674Z,22.10
2017-08-22T07:17:19.233Z,22.40
2017-08-22T07:19:46.821Z,22.50
2017-08-22T07:22:14.459Z,22.60
2017-08-22T07:24:42.017Z,22.90
2017-08-22T07:27:09.604Z,23.00
2017-08-22T07:29:37.200Z,23.30
2017-08-22T07:32:04.799Z,23.90
2017-08-22T07:34:32.376Z,24.30
2017-08-22T07:36:59.971Z,24.20
2017-08-22T07:39:27.602Z,24.50
2017-08-22T07:41:55.198Z,24.60
2017-08-22T07:44:22.795Z,24.90
2017-08-22T07:46:50.364Z,25.20
2017-08-22T07:49:17.953Z,25.30
2017-08-22T07:51:45.530Z,25.70
2017-08-22T07:54:13.206Z,25.60
2017-08-22T07:56:40.793Z,25.70
2017-08-22T07:59:08.493Z,26.10
2017-08-22T08:01:36.077Z,26.40
2017-08-22T08:04:03.648Z,26.70
2017-08-22T08:06:31.232Z,26.30
2017-08-22T08:08:58.814Z,25.70
2017-08-22T08:11:26.970Z,25.60
2017-08-22T08:13:54.538Z,25.50
2017-08-22T08:16:22.135Z,25.00
2017-08-22T08:18:49.708Z,25.70
2017-08-22T08:21:17.269Z,25.70
2017-08-22T08:23:44.863Z,25.80
2017-08-22T08:26:12.411Z,25.50
2017-08-22T08:28:40.355Z,25.80
2017-08-22T08:31:07.969Z,25.90
2017-08-22T08:33:35.548Z,26.30
2017-08-22T08:36:03.133Z,26.90
2017-08-22T08:38:30.691Z,27.00
2017-08-22T08:40:58.287Z,27.00
2017-08-22T08:43:25.865Z,26.90
2017-08-22T08:45:53.463Z,26.90
2017-08-22T08:48:21.046Z,27.20
2017-08-22T08:50:48.629Z,27.50
2017-08-22T08:53:16.215Z,28.10
2017-08-22T08:55:43.902Z,28.00
2017-08-22T08:58:11.470Z,28.00
2017-08-22T09:00:42.822Z,28.60
2017-08-22T09:03:10.390Z,28.60
2017-08-22T09:05:38.004Z,27.90
2017-08-22T09:10:58.119Z,28.00
2017-08-22T09:13:25.914Z,28.40
2017-08-22T09:15:53.507Z,28.80
2017-08-22T09:18:21.142Z,28.70
2017-08-22T09:20:48.705Z,28.70
2017-08-22T09:23:16.458Z,28.50
2017-08-22T09:25:44.035Z,28.30
2017-08-22T09:28:11.603Z,28.40
2017-08-22T09:30:39.180Z,28.40
2017-08-22T09:33:06.747Z,28.70
2017-08-22T09:35:34.335Z,29.40
2017-08-22T09:38:01.900Z,29.50
2017-08-22T09:40:29.522Z,29.20
2017-08-22T09:42:58.025Z,29.40
2017-08-22T09:45:25.599Z,29.90
2017-08-22T09:47:53.170Z,29.60
2017-08-22T09:50:20.786Z,29.60
2017-08-22T09:52:48.484Z,29.00
2017-08-22T09:55:16.060Z,29.70
2017-08-22T09:57:43.693Z,29.50
2017-08-22T10:00:11.342Z,30.30
2017-08-22T10:02:38.922Z,30.40
2017-08-22T10:05:06.502Z,30.50
2017-08-22T10:07:34.134Z,30.30
2017-08-22T10:10:01.894Z,30.80
2017-08-22T10:12:29.470Z,30.20
2017-08-22T10:14:57.030Z,30.10
2017-08-22T10:17:24.606Z,30.40
2017-08-22T10:19:52.191Z,29.80
2017-08-22T10:22:19.771Z,30.00
2017-08-22T10:24:47.475Z,30.20
2017-08-22T10:27:15.053Z,30.30
2017-08-22T10:29:42.646Z,30.80
2017-08-22T10:32:10.214Z,31.40
2017-08-22T10:34:37.812Z,32.30
2017-08-22T10:37:06.182Z,32.10
2017-08-22T10:39:33.755Z,32.20
2017-08-22T10:42:01.321Z,32.50
2017-08-22T10:44:28.883Z,32.80
2017-08-22T10:46:56.477Z,31.50
2017-08-22T10:49:24.077Z,30.90
2017-08-22T10:51:51.631Z,31.10
2017-08-22T10:54:19.255Z,31.40
2017-08-22T10:56:46.816Z,32.00
2017-08-22T10:59:15.293Z,32.70
2017-08-22T11:01:42.900Z,31.30
2017-08-22T11:04:10.674Z,31.50
2017-08-22T11:06:38.253Z,31.50
2017-08-22T11:09:05.801Z,31.60
2017-08-22T11:11:33.390Z,31.60
2017-08-22T11:14:00.961Z,31.80
2017-08-22T11:16:28.543Z,31.50
2017-08-22T11:18:56.107Z,31.30
2017-08-22T11:21:23.967Z,30.40
2017-08-22T11:23:51.716Z,31.00
2017-08-22T11:26:19.305Z,30.40
2017-08-22T11:28:47.099Z,30.30
2017-08-22T11:31:14.680Z,30.40
2017-08-22T11:33:42.271Z,29.80
2017-08-22T11:36:09.862Z,28.90
2017-08-22T11:38:37.458Z,27.50
2017-08-22T11:41:05.126Z,26.70
2017-08-22T11:43:32.747Z,26.90
2017-08-22T11:46:00.300Z,28.30
2017-08-22T11:48:27.860Z,28.10
2017-08-22T11:50:55.442Z,27.50
2017-08-22T11:53:23.051Z,26.90
2017-08-22T11:55:50.618Z,27.30
2017-08-22T11:58:18.211Z,27.60
2017-08-22T12:00:45.777Z,27.80
2017-08-22T12:03:13.373Z,28.70
2017-08-22T12:05:40.935Z,28.90
2017-08-22T12:08:08.537Z,28.90
2017-08-22T12:10:36.106Z,29.70
2017-08-22T12:13:03.751Z,30.40
2017-08-22T12:15:31.383Z,31.20
2017-08-22T12:17:58.957Z,31.40
2017-08-22T12:20:26.522Z,31.20
2017-08-22T12:22:54.095Z,31.60
2017-08-22T12:25:21.691Z,31.10
2017-08-22T12:27:49.251Z,30.70
2017-08-22T12:30:16.843Z,30.60
2017-08-22T12:32:44.420Z,31.00
2017-08-22T12:35:11.998Z,31.50
2017-08-22T12:37:39.587Z,31.70
2017-08-22T12:40:07.173Z,31.60
2017-08-22T12:42:34.747Z,31.30
2017-08-22T12:45:02.464Z,31.90
2017-08-22T12:47:30.050Z,32.40
2017-08-22T12:49:57.895Z,32.70
2017-08-22T12:52:25.491Z,32.00
2017-08-22T12:54:53.050Z,32.90
2017-08-22T12:57:20.594Z,33.10
2017-08-22T12:59:48.170Z,33.10
2017-08-22T13:02:15.750Z,33.20
2017-08-22T13:04:43.354Z,32.90
2017-08-22T13:07:10.946Z,33.00
2017-08-22T13:09:38.543Z,31.70
2017-08-22T13:12:06.116Z,31.80
2017-08-22T13:14:33.703Z,32.10
2017-08-22T13:17:01.261Z,31.20
2017-08-22T13:19:28.978Z,30.70
2017-08-22T13:21:56.603Z,29.50
2017-08-22T13:24:24.158Z,29.60
2017-08-22T13:26:51.834Z,29.30
2017-08-22T13:29:19.394Z,30.00
2017-08-22T13:31:46.987Z,30.50
2017-08-22T13:34:14.554Z,30.70
2017-08-22T13:36:42.106Z,31.00
2017-08-22T13:39:09.667Z,31.50
2017-08-22T13:41:37.242Z,32.20
2017-08-22T13:44:04.816Z,32.70
2017-08-22T13:46:32.413Z,32.20
2017-08-22T13:49:00.010Z,31.10
2017-08-22T13:51:27.841Z,30.30
2017-08-22T13:53:55.402Z,29.90
2017-08-22T13:56:23.138Z,28.60
2017-08-22T13:58:50.730Z,27.70
2017-08-22T14:01:18.317Z,26.80
2017-08-22T14:03:46.061Z,26.70
2017-08-22T14:06:13.815Z,27.30
2017-08-22T14:08:41.406Z,28.30
2017-08-22T14:11:08.967Z,29.00
2017-08-22T14:13:36.557Z,29.70
2017-08-22T14:16:04.158Z,29.80
2017-08-22T14:18:31.729Z,30.10
2017-08-22T14:20:59.297Z,28.90
2017-08-22T14:23:26.903Z,28.50
2017-08-22T14:25:54.487Z,28.80
2017-08-22T14:28:22.098Z,29.00
2017-08-22T14:30:49.771Z,29.70
2017-08-22T14:33:17.349Z,30.00
2017-08-22T14:35:44.932Z,29.70
2017-08-22T14:38:12.507Z,29.70
2017-08-22T14:40:40.129Z,28.50
2017-08-22T14:43:07.712Z,28.30
2017-08-22T14:45:35.288Z,28.40
2017-08-22T14:48:02.873Z,28.70
2017-08-22T14:50:30.476Z,29.20
2017-08-22T14:52:58.052Z,29.40
2017-08-22T14:55:25.642Z,29.40
2017-08-22T14:57:53.238Z,28.70
2017-08-22T15:00:20.894Z,28.70
2017-08-22T15:02:48.474Z,29.10
2017-08-22T15:05:16.084Z,29.20
2017-08-22T15:07:43.656Z,29.10
2017-08-22T15:10:11.241Z,29.30
2017-08-22T15:12:38.824Z,29.20
2017-08-22T15:15:06.483Z,28.60
2017-08-22T15:17:34.046Z,28.30
2017-08-22T15:20:01.626Z,28.30
2017-08-22T15:22:29.211Z,28.40
2017-08-22T15:24:56.821Z,28.40
2017-08-22T15:27:24.423Z,28.60
2017-08-22T15:29:52.039Z,28.50
2017-08-22T15:32:19.574Z,27.90
2017-08-22T15:34:47.463Z,27.70
2017-08-22T15:37:15.069Z,27.70
2017-08-22T15:39:42.698Z,27.90
2017-08-22T15:42:10.365Z,27.60
2017-08-22T15:44:37.931Z,27.10
2017-08-22T15:47:05.507Z,26.50
2017-08-22T15:49:33.212Z,25.90
2017-08-22T15:52:01.151Z,25.90
2017-08-22T15:54:28.706Z,26.00
2017-08-22T15:56:56.296Z,26.30
2017-08-22T15:59:25.213Z,26.40
2017-08-22T16:01:52.806Z,26.30
2017-08-22T16:04:20.363Z,26.20
2017-08-22T16:06:48.208Z,26.30
2017-08-22T16:09:15.763Z,26.40
2017-08-22T16:11:43.323Z,26.40
2017-08-22T16:14:11.791Z,26.40
2017-08-22T16:16:40.179Z,26.20
2017-08-22T16:21:53.218Z,25.90
2017-08-22T16:24:20.876Z,25.90
2017-08-22T16:26:48.448Z,25.70
2017-08-22T16:29:16.037Z,25.30
2017-08-22T16:31:43.630Z,25.20
2017-08-22T16:34:11.202Z,25.30
2017-08-22T16:36:38.796Z,25.30
2017-08-22T16:39:06.386Z,24.90
2017-08-22T16:41:33.959Z,24.50
2017-08-22T16:44:01.523Z,24.10
2017-08-22T16:46:29.126Z,23.80
2017-08-22T16:48:56.680Z,23.80
2017-08-22T16:51:25.227Z,23.90
2017-08-22T16:53:52.816Z,24.10
2017-08-22T16:56:20.423Z,24.10
2017-08-22T16:58:47.981Z,24.10
2017-08-22T17:01:15.744Z,24.00
2017-08-22T17:03:43.343Z,23.90
2017-08-22T17:06:10.936Z,23.80
2017-08-22T17:08:39.860Z,23.70
2017-08-22T17:11:07.415Z,23.60
2017-08-22T17:13:34.988Z,23.40
2017-08-22T17:16:02.591Z,23.30
2017-08-22T17:18:30.588Z,23.30
2017-08-22T17:20:58.173Z,23.20
2017-08-22T17:23:25.866Z,23.10
2017-08-22T17:25:53.788Z,23.00
2017-08-22T17:28:21.592Z,22.90
2017-08-22T17:30:50.828Z,22.90
2017-08-22T17:33:18.834Z,23.00
2017-08-22T17:35:46.400Z,22.90
2017-08-22T17:38:14.035Z,23.00
2017-08-22T17:40:41.853Z,23.00
2017-08-22T17:43:09.487Z,22.90
2017-08-22T17:48:13.996Z,22.70
2017-08-22T17:50:41.922Z,22.60
2017-08-22T17:53:09.540Z,22.50
2017-08-22T17:55:37.134Z,22.50
2017-08-22T17:58:05.447Z,22.40
2017-08-22T18:00:33.003Z,22.30
2017-08-22T18:03:00.726Z,22.20
2017-08-22T18:05:28.461Z,22.00
2017-08-22T18:07:56.119Z,21.90
2017-08-22T18:10:23.672Z,21.80
2017-08-22T18:12:51.266Z,21.60
2017-08-22T18:15:18.875Z,21.60
2017-08-22T18:17:46.460Z,21.50
2017-08-22T18:20:14.021Z,21.30
2017-08-22T18:22:41.617Z,21.20
2017-08-22T18:25:09.208Z,21.20
2017-08-22T18:27:36.801Z,21.00
2017-08-22T18:30:04.355Z,20.90
2017-08-22T18:32:31.935Z,20.60
2017-08-22T18:34:59.535Z,20.40
2017-08-22T18:37:27.117Z,20.20
2017-08-22T18:39:54.722Z,20.00
2017-08-22T18:42:22.293Z,19.90
2017-08-22T18:44:49.895Z,19.90
2017-08-22T18:47:17.464Z,19.60
2017-08-22T18:49:45.067Z,19.50
2017-08-22T18:52:12.675Z,19.60
2017-08-22T18:54:40.226Z,19.60
2017-08-22T18:57:07.834Z,19.50
2017-08-22T18:59:35.395Z,19.30
2017-08-22T19:02:02.975Z,19.30
2017-08-22T19:04:30.579Z,19.10
2017-08-22T19:06:58.203Z,19.10
2017-08-22T19:09:25.795Z,19.10
2017-08-22T19:11:53.363Z,19.10
2017-08-22T19:14:20.951Z,19.00
2017-08-22T19:16:48.531Z,19.00
2017-08-22T19:19:16.198Z,19.00
2017-08-22T19:21:43.782Z,19.00
2017-08-22T19:24:11.355Z,19.10
2017-08-22T19:26:38.960Z,19.00
2017-08-22T19:29:06.520Z,18.90
2017-08-22T19:31:34.118Z,18.90
2017-08-22T19:34:01.723Z,18.80
2017-08-22T19:36:29.297Z,18.90
2017-08-22T19:38:56.958Z,18.70
2017-08-22T19:41:24.551Z,18.70
2017-08-22T19:43:53.019Z,18.70
2017-08-22T19:46:20.660Z,18.70
2017-08-22T19:48:48.258Z,18.70
2017-08-22T19:51:15.889Z,18.70
2017-08-22T19:53:43.553Z,18.60
2017-08-22T19:56:11.174Z,18.70
2017-08-22T19:58:38.825Z,18.70
2017-08-22T20:01:06.451Z,18.60
2017-08-22T20:03:34.026Z,18.60
2017-08-22T20:06:01.597Z,18.60
2017-08-22T20:08:29.237Z,18.70
2017-08-22T20:10:56.864Z,18.70
2017-08-22T20:13:24.774Z,18.60
2017-08-22T20:15:52.452Z,18.60
2017-08-22T20:18:20.047Z,18.60
2017-08-22T20:20:47.711Z,18.60
2017-08-22T20:23:15.311Z,18.60
2017-08-22T20:25:43.049Z,18.40
2017-08-22T20:28:10.654Z,18.40
2017-08-22T20:30:38.280Z,18.40
2017-08-22T20:33:05.981Z,18.40
2017-08-22T20:35:33.588Z,18.30
2017-08-22T20:38:01.243Z,18.20
2017-08-22T20:40:28.810Z,18.20
2017-08-22T20:42:56.434Z,18.10
2017-08-22T20:45:24.298Z,18.10
2017-08-22T20:47:52.074Z,18.00
2017-08-22T20:50:19.821Z,17.90
2017-08-22T20:52:47.433Z,17.90
2017-08-22T20:55:15.063Z,17.90
2017-08-22T20:57:42.836Z,17.80
2017-08-22T21:00:10.477Z,17.80
2017-08-22T21:02:38.122Z,17.80
2017-08-22T21:05:05.823Z,17.80
2017-08-22T21:07:33.574Z,17.70
2017-08-22T21:10:01.339Z,17.70
2017-08-22T21:12:28.993Z,17.70
2017-08-22T21:14:56.800Z,17.70
2017-08-22T21:17:24.512Z,17.60
2017-08-22T21:19:52.183Z,17.50
2017-08-22T21:22:19.937Z,17.50
2017-08-22T21:24:47.551Z,17.50
2017-08-22T21:27:15.151Z,17.40
2017-08-22T21:29:42.726Z,17.40
2017-08-22T21:32:10.320Z,17.40
2017-08-22T21:34:37.986Z,17.40
2017-08-22T21:37:05.755Z,17.30
2017-08-22T21:39:33.339Z,17.30
2017-08-22T21:42:01.591Z,17.30
2017-08-22T21:44:29.385Z,17.20
2017-08-22T21:46:57.211Z,17.20
2017-08-22T21:49:24.786Z,17.20
2017-08-22T21:51:52.410Z,17.30
2017-08-22T21:54:19.950Z,17.30
2017-08-22T21:56:47.589Z,17.20
2017-08-22T21:59:15.298Z,17.20
2017-08-22T22:01:42.968Z,17.20
2017-08-22T22:04:10.540Z,17.20
2017-08-22T22:06:38.166Z,17.10
2017-08-22T22:09:05.753Z,17.10
2017-08-22T22:11:33.331Z,17.00
2017-08-22T22:14:00.954Z,16.90
2017-08-22T22:16:28.551Z,16.90
2017-08-22T22:18:56.122Z,16.70
2017-08-22T22:21:23.764Z,16.70
2017-08-22T22:23:51.335Z,16.70
2017-08-22T22:26:18.992Z,16.60
2017-08-22T22:28:46.563Z,16.70
2017-08-22T22:31:14.239Z,16.70
2017-08-22T22:33:41.928Z,16.60
2017-08-22T22:36:09.508Z,16.50
2017-08-22T22:38:37.113Z,16.40
2017-08-22T22:41:04.687Z,16.20
2017-08-22T22:43:32.263Z,16.10
2017-08-22T22:45:59.949Z,15.90
2017-08-22T22:48:27.539Z,15.80
2017-08-22T22:50:55.143Z,15.70
2017-08-22T22:53:22.811Z,15.60
2017-08-22T22:55:50.405Z,15.50
2017-08-22T22:58:18.015Z,15.30
2017-08-22T23:00:45.609Z,15.20
2017-08-22T23:03:13.196Z,15.10
2017-08-22T23:05:40.761Z,15.00
2017-08-22T23:08:08.418Z,14.90
2017-08-22T23:10:36.150Z,14.90
2017-08-22T23:13:03.723Z,14.90
2017-08-22T23:15:31.333Z,15.20
2017-08-22T23:17:58.925Z,15.50
2017-08-22T23:20:26.520Z,15.70
2017-08-22T23:22:54.118Z,15.60
2017-08-22T23:25:21.708Z,15.50
2017-08-22T23:27:49.304Z,15.30
2017-08-22T23:30:16.892Z,15.20
2017-08-22T23:32:44.519Z,15.10
2017-08-22T23:35:12.196Z,14.90
2017-08-22T23:37:39.816Z,14.80
2017-08-22T23:40:07.384Z,14.80
2017-08-22T23:46:26.433Z,14.60
2017-08-22T23:48:54.003Z,14.60
2017-08-22T23:51:21.609Z,14.50
2017-08-22T23:53:49.213Z,14.40
2017-08-22T23:56:16.792Z,14.40
2017-08-22T23:58:44.450Z,14.40
